Mc Lain, Mississippi
Current Conditions -  °F | °C
As of 9:53 PM on Wednesday 28 Jan 2015 (Local Time) from KHBG Reporting Station
Clear Clear  
Wind Chill: 48°   Ceiling: Unl
Heat Index: 48°   Visibility: 10mi
Dew Point: 40°   Wind: 3mph
Humidity: 74%   Direction: 150°SSE
Pressure: 30.22"   Gusts: NA
Location:  31.0532°N, 88.8084°W
Report Text: KHBG 290353Z AUTO 15003KT 10SM CLR 09/04 A3022 RMK AO2 SLP234 T00890044
Loading
Personal Weather Stations






























Interactive Weather Map New forecast layout! Learn more

10-Day Weather Forecast

Advertisements
Track Severe Weather on mobile